PWSweather.com
Personal Weather Stations
Station Observations
KAZSIERR7
Canyon De Flores, Sierra Vista, AZ 85650

Canyon De FloresSierra Vista, AZ 85650

Lat: 31.5, Lon: -110.26

Elevation: 4645

Station Type: LaCrosse WS-3610 & Boltek Lightning Detector

http://www.lightningring.com/weather/

High Low Average
Temperature 79.8°F26.6°C 48.7°F9.3°C 64.5°F18.1°C
Dew Point 44.8°F7.1°C 28.5°F-1.9°C 36.1°F2.3°C
Winds 7.7 mph 12.4 kmh Calm Calm 1.0 mph SSW1.6 kmh SSW
Wind Gusts 25.4 mph40.9 kmh -- 4.0 mph6.4 kmh
Humidity 59% 17% 38%
Pressure 30.24 in1024.0 mb 30.15 in1021.0 mb -
Precipitation 0.00 in0.0 mm - -
Hour Temp Dew Point Humidity Winds Wind Gusts Pressure Precip Precip Rate Daily Precip Total
12:02 AM 53.2°F11.8°C 34.5°F1.4°C 49% Calm Calm -- 30.20 in1022.7 mb 0.00 in0.0 mm 0.00 in/hr0.0 mm/hr 0.00 in0.0 mm
12:12 AM 52.8°F11.6°C 34.6°F1.4°C 50% Calm Calm -- 30.20 in1022.7 mb 0.00 in0.0 mm 0.00 in/hr0.0 mm/hr 0.00 in0.0 mm
12:23 AM 52.6°F11.4°C 34.5°F1.4°C 50% Calm Calm -- 30.20 in1022.7 mb 0.00 in0.0 mm 0.00 in/hr0.0 mm/hr 0.00 in0.0 mm
12:33 AM 52.6°F11.4°C 34.5°F1.4°C 50% Calm Calm -- 30.20 in1022.7 mb 0.00 in0.0 mm 0.00 in/hr0.0 mm/hr 0.00 in0.0 mm
12:44 AM 52.8°F11.6°C 34.1°F1.2°C 49% Calm Calm -- 30.20 in1022.7 mb 0.00 in0.0 mm 0.00 in/hr0.0 mm/hr 0.00 in0.0 mm
12:55 AM 52.5°F11.4°C 34.4°F1.3°C 50% Calm Calm -- 30.20 in1022.7 mb 0.00 in0.0 mm 0.00 in/hr0.0 mm/hr 0.00 in0.0 mm
01:05 AM 52.3°F11.3°C 34.2°F1.2°C 50% Calm Calm -- 30.21 in1023.0 mb 0.00 in0.0 mm 0.00 in/hr0.0 mm/hr 0.00 in0.0 mm
01:15 AM 51.7°F10.9°C 34.1°F1.2°C 51% Calm Calm -- 30.21 in1023.0 mb 0.00 in0.0 mm 0.00 in/hr0.0 mm/hr 0.00 in0.0 mm
01:26 AM 51.9°F11.1°C 33.8°F1.0°C 50% Calm Calm -- 30.21 in1023.0 mb 0.00 in0.0 mm 0.00 in/hr0.0 mm/hr 0.00 in0.0 mm
01:36 AM 51.7°F10.9°C 34.1°F1.2°C 51% Calm Calm -- 30.21 in1023.0 mb 0.00 in0.0 mm 0.00 in/hr0.0 mm/hr 0.00 in0.0 mm
01:47 AM 51.4°F10.8°C 33.4°F0.8°C 50% Calm Calm -- 30.21 in1023.0 mb 0.00 in0.0 mm 0.00 in/hr0.0 mm/hr 0.00 in0.0 mm
01:57 AM 51.2°F10.7°C 33.7°F0.9°C 51% Calm Calm -- 30.21 in1023.0 mb 0.00 in0.0 mm 0.00 in/hr0.0 mm/hr 0.00 in0.0 mm
02:08 AM 51.0°F10.6°C 33.5°F0.8°C 51% Calm Calm -- 30.21 in1023.0 mb 0.00 in0.0 mm 0.00 in/hr0.0 mm/hr 0.00 in0.0 mm
02:18 AM 51.4°F10.8°C 33.4°F0.8°C 50% Calm Calm -- 30.20 in1022.7 mb 0.00 in0.0 mm 0.00 in/hr0.0 mm/hr 0.00 in0.0 mm
02:29 AM 51.0°F10.6°C 33.5°F0.8°C 51% Calm Calm -- 30.20 in1022.7 mb 0.00 in0.0 mm 0.00 in/hr0.0 mm/hr 0.00 in0.0 mm
02:39 AM 51.0°F10.6°C 33.5°F0.8°C 51% Calm Calm -- 30.20 in1022.7 mb 0.00 in0.0 mm 0.00 in/hr0.0 mm/hr 0.00 in0.0 mm
02:50 AM 50.7°F10.4°C 34.7°F1.5°C 54% Calm Calm -- 30.19 in1022.4 mb 0.00 in0.0 mm 0.00 in/hr0.0 mm/hr 0.00 in0.0 mm
03:00 AM 50.5°F10.3°C 35.4°F1.9°C 56% Calm Calm -- 30.19 in1022.4 mb 0.00 in0.0 mm 0.00 in/hr0.0 mm/hr 0.00 in0.0 mm
03:11 AM 50.1°F10.1°C 34.6°F1.4°C 55% Calm Calm -- 30.19 in1022.4 mb 0.00 in0.0 mm 0.00 in/hr0.0 mm/hr 0.00 in0.0 mm
03:21 AM 49.9°F9.9°C 34.4°F1.3°C 55% Calm Calm -- 30.19 in1022.4 mb 0.00 in0.0 mm 0.00 in/hr0.0 mm/hr 0.00 in0.0 mm
03:32 AM 50.1°F10.1°C 35.1°F1.7°C 56% Calm Calm -- 30.19 in1022.4 mb 0.00 in0.0 mm 0.00 in/hr0.0 mm/hr 0.00 in0.0 mm
03:42 AM 49.9°F9.9°C 34.9°F1.6°C 56% Calm Calm -- 30.19 in1022.4 mb 0.00 in0.0 mm 0.00 in/hr0.0 mm/hr 0.00 in0.0 mm
03:53 AM 49.9°F9.9°C 35.3°F1.8°C 57% Calm Calm -- 30.20 in1022.7 mb 0.00 in0.0 mm 0.00 in/hr0.0 mm/hr 0.00 in0.0 mm
04:03 AM 49.9°F9.9°C 35.3°F1.8°C 57% Calm Calm -- 30.20 in1022.7 mb 0.00 in0.0 mm 0.00 in/hr0.0 mm/hr 0.00 in0.0 mm
04:13 AM 49.9°F9.9°C 35.3°F1.8°C 57% Calm Calm -- 30.20 in1022.7 mb 0.00 in0.0 mm 0.00 in/hr0.0 mm/hr 0.00 in0.0 mm
04:24 AM 50.1°F10.1°C 35.1°F1.7°C 56% Calm Calm -- 30.19 in1022.4 mb 0.00 in0.0 mm 0.00 in/hr0.0 mm/hr 0.00 in0.0 mm
04:34 AM 50.1°F10.1°C 35.1°F1.7°C 56% Calm Calm -- 30.19 in1022.4 mb 0.00 in0.0 mm 0.00 in/hr0.0 mm/hr 0.00 in0.0 mm
04:45 AM 50.5°F10.3°C 35.4°F1.9°C 56% Calm Calm -- 30.20 in1022.7 mb 0.00 in0.0 mm 0.00 in/hr0.0 mm/hr 0.00 in0.0 mm
04:55 AM 50.5°F10.3°C 35.4°F1.9°C 56% Calm Calm -- 30.20 in1022.7 mb 0.00 in0.0 mm 0.00 in/hr0.0 mm/hr 0.00 in0.0 mm
05:06 AM 50.5°F10.3°C 35.4°F1.9°C 56% Calm Calm -- 30.20 in1022.7 mb 0.00 in0.0 mm 0.00 in/hr0.0 mm/hr 0.00 in0.0 mm
05:16 AM 50.5°F10.3°C 35.4°F1.9°C 56% Calm Calm -- 30.20 in1022.7 mb 0.00 in0.0 mm 0.00 in/hr0.0 mm/hr 0.00 in0.0 mm
05:27 AM 50.1°F10.1°C 35.1°F1.7°C 56% Calm Calm -- 30.20 in1022.7 mb 0.00 in0.0 mm 0.00 in/hr0.0 mm/hr 0.00 in0.0 mm
05:37 AM 49.9°F9.9°C 35.3°F1.8°C 57% Calm Calm -- 30.20 in1022.7 mb 0.00 in0.0 mm 0.00 in/hr0.0 mm/hr 0.00 in0.0 mm
05:48 AM 49.9°F9.9°C 35.3°F1.8°C 57% Calm Calm -- 30.21 in1023.0 mb 0.00 in0.0 mm 0.00 in/hr0.0 mm/hr 0.00 in0.0 mm
05:58 AM 49.6°F9.8°C 35.1°F1.7°C 57% Calm Calm -- 30.21 in1023.0 mb 0.00 in0.0 mm 0.00 in/hr0.0 mm/hr 0.00 in0.0 mm
06:09 AM 49.2°F9.6°C 35.1°F1.7°C 58% Calm Calm -- 30.21 in1023.0 mb 0.00 in0.0 mm 0.00 in/hr0.0 mm/hr 0.00 in0.0 mm
06:19 AM 48.9°F9.4°C 35.3°F1.8°C 59% Calm Calm -- 30.22 in1023.4 mb 0.00 in0.0 mm 0.00 in/hr0.0 mm/hr 0.00 in0.0 mm
06:30 AM 48.7°F9.3°C 35.1°F1.7°C 59% Calm Calm -- 30.22 in1023.4 mb 0.00 in0.0 mm 0.00 in/hr0.0 mm/hr 0.00 in0.0 mm
06:40 AM 48.7°F9.3°C 35.1°F1.7°C 59% Calm Calm -- 30.22 in1023.4 mb 0.00 in0.0 mm 0.00 in/hr0.0 mm/hr 0.00 in0.0 mm
06:51 AM 49.0°F9.4°C 34.9°F1.6°C 58% Calm Calm -- 30.22 in1023.4 mb 0.00 in0.0 mm 0.00 in/hr0.0 mm/hr 0.00 in0.0 mm
07:01 AM 49.6°F9.8°C 35.5°F1.9°C 58% Calm Calm -- 30.22 in1023.4 mb 0.00 in0.0 mm 0.00 in/hr0.0 mm/hr 0.00 in0.0 mm
07:12 AM 49.7°F9.8°C 35.6°F2.0°C 58% Calm Calm -- 30.22 in1023.4 mb 0.00 in0.0 mm 0.00 in/hr0.0 mm/hr 0.00 in0.0 mm
07:22 AM 58.5°F14.7°C 38.8°F3.8°C 48% Calm Calm -- 30.22 in1023.4 mb 0.00 in0.0 mm 0.00 in/hr0.0 mm/hr 0.00 in0.0 mm
07:33 AM 65.5°F18.6°C 39.8°F4.3°C 39% Calm Calm -- 30.23 in1023.7 mb 0.00 in0.0 mm 0.00 in/hr0.0 mm/hr 0.00 in0.0 mm
07:43 AM 70.7°F21.5°C 40.8°F4.9°C 34% Calm Calm -- 30.23 in1023.7 mb 0.00 in0.0 mm 0.00 in/hr0.0 mm/hr 0.00 in0.0 mm
07:54 AM 77.5°F25.3°C 43.4°F6.3°C 30% Calm Calm -- 30.23 in1023.7 mb 0.00 in0.0 mm 0.00 in/hr0.0 mm/hr 0.00 in0.0 mm
08:04 AM 79.4°F26.3°C 44.2°F6.8°C 29% Calm Calm -- 30.24 in1024.0 mb 0.00 in0.0 mm 0.00 in/hr0.0 mm/hr 0.00 in0.0 mm
08:14 AM 79.8°F26.6°C 44.6°F7.0°C 29% Calm Calm -- 30.23 in1023.7 mb 0.00 in0.0 mm 0.00 in/hr0.0 mm/hr 0.00 in0.0 mm
08:25 AM 79.0°F26.1°C 44.8°F7.1°C 30% Calm Calm -- 30.24 in1024.0 mb 0.00 in0.0 mm 0.00 in/hr0.0 mm/hr 0.00 in0.0 mm
08:35 AM 78.9°F26.1°C 42.9°F6.1°C 28% Calm Calm -- 30.24 in1024.0 mb 0.00 in0.0 mm 0.00 in/hr0.0 mm/hr 0.00 in0.0 mm
08:46 AM 79.6°F26.4°C 42.6°F5.9°C 27% Calm Calm -- 30.23 in1023.7 mb 0.00 in0.0 mm 0.00 in/hr0.0 mm/hr 0.00 in0.0 mm
08:56 AM 79.4°F26.3°C 42.4°F5.8°C 27% Calm Calm -- 30.24 in1024.0 mb 0.00 in0.0 mm 0.00 in/hr0.0 mm/hr 0.00 in0.0 mm
09:07 AM 79.5°F26.4°C 42.5°F5.8°C 27% Calm Calm -- 30.24 in1024.0 mb 0.00 in0.0 mm 0.00 in/hr0.0 mm/hr 0.00 in0.0 mm
09:17 AM 77.5°F25.3°C 41.7°F5.4°C 28% 0.9 mph ESE1.4 kmh ESE 1.2 mph1.9 kmh 30.24 in1024.0 mb 0.00 in0.0 mm 0.00 in/hr0.0 mm/hr 0.00 in0.0 mm
09:28 AM 75.4°F24.1°C 39.9°F4.4°C 28% 4.6 mph ESE7.4 kmh ESE 6.6 mph10.6 kmh 30.24 in1024.0 mb 0.00 in0.0 mm 0.00 in/hr0.0 mm/hr 0.00 in0.0 mm
09:38 AM 76.3°F24.6°C 40.7°F4.8°C 28% Calm Calm 6.2 mph10.0 kmh 30.24 in1024.0 mb 0.00 in0.0 mm 0.00 in/hr0.0 mm/hr 0.00 in0.0 mm
09:49 AM 76.2°F24.6°C 39.6°F4.2°C 27% Calm Calm 6.6 mph10.6 kmh 30.24 in1024.0 mb 0.00 in0.0 mm 0.00 in/hr0.0 mm/hr 0.00 in0.0 mm
09:59 AM 75.2°F24.0°C 40.6°F4.8°C 29% 3.6 mph S5.8 kmh S 4.8 mph7.7 kmh 30.24 in1024.0 mb 0.00 in0.0 mm 0.00 in/hr0.0 mm/hr 0.00 in0.0 mm
10:10 AM 75.2°F24.0°C 39.7°F4.3°C 28% 3.3 mph ESE5.3 kmh ESE 6.6 mph10.6 kmh 30.24 in1024.0 mb 0.00 in0.0 mm 0.00 in/hr0.0 mm/hr 0.00 in0.0 mm
10:20 AM 74.7°F23.7°C 40.2°F4.6°C 29% 5.7 mph SE9.2 kmh SE 13.8 mph22.2 kmh 30.23 in1023.7 mb 0.00 in0.0 mm 0.00 in/hr0.0 mm/hr 0.00 in0.0 mm
10:31 AM 74.5°F23.6°C 39.1°F3.9°C 28% 1.1 mph SE1.8 kmh SE 8.0 mph12.9 kmh 30.23 in1023.7 mb 0.00 in0.0 mm 0.00 in/hr0.0 mm/hr 0.00 in0.0 mm
10:41 AM 72.9°F22.7°C 38.6°F3.7°C 29% 5.3 mph ESE8.5 kmh ESE 24.6 mph39.6 kmh 30.23 in1023.7 mb 0.00 in0.0 mm 0.00 in/hr0.0 mm/hr 0.00 in0.0 mm
10:52 AM 72.3°F22.4°C 38.1°F3.4°C 29% 2.6 mph SE4.2 kmh SE 15.6 mph25.1 kmh 30.23 in1023.7 mb 0.00 in0.0 mm 0.00 in/hr0.0 mm/hr 0.00 in0.0 mm
11:02 AM 71.8°F22.1°C 38.5°F3.6°C 30% 3.0 mph SE4.8 kmh SE 21.4 mph34.4 kmh 30.23 in1023.7 mb 0.00 in0.0 mm 0.00 in/hr0.0 mm/hr 0.00 in0.0 mm
11:12 AM 73.7°F23.2°C 39.3°F4.1°C 29% 1.9 mph SE3.1 kmh SE 15.2 mph24.5 kmh 30.23 in1023.7 mb 0.00 in0.0 mm 0.00 in/hr0.0 mm/hr 0.00 in0.0 mm
11:23 AM 73.6°F23.1°C 39.3°F4.1°C 29% 4.5 mph SE7.2 kmh SE 21.0 mph33.8 kmh 30.22 in1023.4 mb 0.00 in0.0 mm 0.00 in/hr0.0 mm/hr 0.00 in0.0 mm
11:33 AM 74.7°F23.7°C 38.3°F3.5°C 27% 5.4 mph SSW8.7 kmh SSW 14.2 mph22.9 kmh 30.22 in1023.4 mb 0.00 in0.0 mm 0.00 in/hr0.0 mm/hr 0.00 in0.0 mm
11:44 AM 75.1°F23.9°C 38.7°F3.7°C 27% 3.4 mph SE5.5 kmh SE 14.6 mph23.5 kmh 30.21 in1023.0 mb 0.00 in0.0 mm 0.00 in/hr0.0 mm/hr 0.00 in0.0 mm
11:54 AM 77.3°F25.2°C 37.6°F3.1°C 24% 3.0 mph ESE4.8 kmh ESE 4.0 mph6.4 kmh 30.20 in1022.7 mb 0.00 in0.0 mm 0.00 in/hr0.0 mm/hr 0.00 in0.0 mm
12:05 PM 75.4°F24.1°C 36.0°F2.2°C 24% 6.4 mph SSE10.3 kmh SSE 22.8 mph36.7 kmh 30.20 in1022.7 mb 0.00 in0.0 mm 0.00 in/hr0.0 mm/hr 0.00 in0.0 mm
12:15 PM 74.8°F23.8°C 35.5°F1.9°C 24% 7.7 mph ESE12.4 kmh ESE 13.4 mph21.6 kmh 30.20 in1022.7 mb 0.00 in0.0 mm 0.00 in/hr0.0 mm/hr 0.00 in0.0 mm
12:26 PM 76.5°F24.7°C 35.9°F2.2°C 23% 6.6 mph SE10.6 kmh SE 8.8 mph14.2 kmh 30.20 in1022.7 mb 0.00 in0.0 mm 0.00 in/hr0.0 mm/hr 0.00 in0.0 mm
12:36 PM 76.2°F24.6°C 35.6°F2.0°C 23% 3.6 mph SE5.8 kmh SE 17.4 mph28.0 kmh 30.20 in1022.7 mb 0.00 in0.0 mm 0.00 in/hr0.0 mm/hr 0.00 in0.0 mm
12:47 PM 77.6°F25.3°C 36.8°F2.7°C 23% 5.1 mph SSW8.2 kmh SSW 25.4 mph40.9 kmh 30.19 in1022.4 mb 0.00 in0.0 mm 0.00 in/hr0.0 mm/hr 0.00 in0.0 mm
12:57 PM 77.1°F25.1°C 35.3°F1.8°C 22% 5.7 mph S9.2 kmh S 9.8 mph15.8 kmh 30.19 in1022.4 mb 0.00 in0.0 mm 0.00 in/hr0.0 mm/hr 0.00 in0.0 mm
01:08 PM 75.8°F24.3°C 36.3°F2.4°C 24% 7.7 mph SE12.4 kmh SE 14.2 mph22.9 kmh 30.18 in1022.0 mb 0.00 in0.0 mm 0.00 in/hr0.0 mm/hr 0.00 in0.0 mm
01:18 PM 78.0°F25.6°C 36.0°F2.2°C 22% 3.6 mph S5.8 kmh S 12.8 mph20.6 kmh 30.17 in1021.7 mb 0.00 in0.0 mm 0.00 in/hr0.0 mm/hr 0.00 in0.0 mm
01:29 PM 78.0°F25.6°C 33.7°F0.9°C 20% 1.8 mph SE2.9 kmh SE 4.8 mph7.7 kmh 30.17 in1021.7 mb 0.00 in0.0 mm 0.00 in/hr0.0 mm/hr 0.00 in0.0 mm
01:39 PM 75.6°F24.2°C 35.1°F1.7°C 23% 4.0 mph SE6.4 kmh SE 25.0 mph40.2 kmh 30.17 in1021.7 mb 0.00 in0.0 mm 0.00 in/hr0.0 mm/hr 0.00 in0.0 mm
01:50 PM 77.5°F25.3°C 35.6°F2.0°C 22% 4.4 mph S7.1 kmh S 6.2 mph10.0 kmh 30.17 in1021.7 mb 0.00 in0.0 mm 0.00 in/hr0.0 mm/hr 0.00 in0.0 mm
02:00 PM 78.1°F25.6°C 32.5°F0.3°C 19% Calm Calm 9.8 mph15.8 kmh 30.17 in1021.7 mb 0.00 in0.0 mm 0.00 in/hr0.0 mm/hr 0.00 in0.0 mm
02:10 PM 77.8°F25.4°C 29.4°F-1.4°C 17% 3.2 mph SE5.1 kmh SE 25.0 mph40.2 kmh 30.16 in1021.3 mb 0.00 in0.0 mm 0.00 in/hr0.0 mm/hr 0.00 in0.0 mm
02:21 PM 77.5°F25.3°C 29.3°F-1.5°C 17% 1.7 mph ESE2.7 kmh ESE 7.0 mph11.3 kmh 30.16 in1021.3 mb 0.00 in0.0 mm 0.00 in/hr0.0 mm/hr 0.00 in0.0 mm
02:31 PM 77.4°F25.2°C 31.9°F-0.1°C 19% 4.9 mph SE7.9 kmh SE 6.6 mph10.6 kmh 30.16 in1021.3 mb 0.00 in0.0 mm 0.00 in/hr0.0 mm/hr 0.00 in0.0 mm
02:42 PM 78.0°F25.6°C 32.4°F0.2°C 19% 5.1 mph SE8.2 kmh SE 7.0 mph11.3 kmh 30.16 in1021.3 mb 0.00 in0.0 mm 0.00 in/hr0.0 mm/hr 0.00 in0.0 mm
02:52 PM 76.7°F24.8°C 28.5°F-1.9°C 17% Calm Calm 17.4 mph28.0 kmh 30.16 in1021.3 mb 0.00 in0.0 mm 0.00 in/hr0.0 mm/hr 0.00 in0.0 mm
03:03 PM 77.3°F25.2°C 29.0°F-1.7°C 17% 1.2 mph S1.9 kmh S 11.0 mph17.7 kmh 30.16 in1021.3 mb 0.00 in0.0 mm 0.00 in/hr0.0 mm/hr 0.00 in0.0 mm
03:13 PM 76.3°F24.6°C 30.9°F-0.6°C 19% 3.6 mph S5.8 kmh S 4.8 mph7.7 kmh 30.16 in1021.3 mb 0.00 in0.0 mm 0.00 in/hr0.0 mm/hr 0.00 in0.0 mm
03:24 PM 74.8°F23.8°C 31.0°F-0.6°C 20% 2.6 mph SE4.2 kmh SE 9.2 mph14.8 kmh 30.16 in1021.3 mb 0.00 in0.0 mm 0.00 in/hr0.0 mm/hr 0.00 in0.0 mm
03:34 PM 74.6°F23.7°C 32.0°F0.0°C 21% Calm Calm 8.4 mph13.5 kmh 30.15 in1021.0 mb 0.00 in0.0 mm 0.00 in/hr0.0 mm/hr 0.00 in0.0 mm
03:45 PM 74.3°F23.5°C 31.8°F-0.1°C 21% 5.3 mph SE8.5 kmh SE 8.0 mph12.9 kmh 30.16 in1021.3 mb 0.00 in0.0 mm 0.00 in/hr0.0 mm/hr 0.00 in0.0 mm
03:55 PM 73.7°F23.2°C 31.3°F-0.4°C 21% 3.7 mph SE6.0 kmh SE 8.4 mph13.5 kmh 30.16 in1021.3 mb 0.00 in0.0 mm 0.00 in/hr0.0 mm/hr 0.00 in0.0 mm
04:06 PM 74.1°F23.4°C 31.6°F-0.2°C 21% 4.4 mph SSE7.1 kmh SSE 6.2 mph10.0 kmh 30.16 in1021.3 mb 0.00 in0.0 mm 0.00 in/hr0.0 mm/hr 0.00 in0.0 mm
04:16 PM 73.8°F23.2°C 30.2°F-1.0°C 20% 3.1 mph SE5.0 kmh SE 14.6 mph23.5 kmh 30.16 in1021.3 mb 0.00 in0.0 mm 0.00 in/hr0.0 mm/hr 0.00 in0.0 mm
04:27 PM 73.7°F23.2°C 32.4°F0.2°C 22% 3.9 mph SE6.3 kmh SE 7.0 mph11.3 kmh 30.17 in1021.7 mb 0.00 in0.0 mm 0.00 in/hr0.0 mm/hr 0.00 in0.0 mm
04:37 PM 73.0°F22.8°C 30.7°F-0.7°C 21% 1.2 mph SE1.9 kmh SE 7.0 mph11.3 kmh 30.16 in1021.3 mb 0.00 in0.0 mm 0.00 in/hr0.0 mm/hr 0.00 in0.0 mm
04:48 PM 72.9°F22.7°C 31.8°F-0.1°C 22% Calm Calm 1.6 mph2.6 kmh 30.16 in1021.3 mb 0.00 in0.0 mm 0.00 in/hr0.0 mm/hr 0.00 in0.0 mm
04:58 PM 72.2°F22.3°C 31.1°F-0.5°C 22% Calm Calm 6.6 mph10.6 kmh 30.16 in1021.3 mb 0.00 in0.0 mm 0.00 in/hr0.0 mm/hr 0.00 in0.0 mm
05:08 PM 72.0°F22.2°C 32.1°F0.1°C 23% Calm Calm 3.4 mph5.5 kmh 30.16 in1021.3 mb 0.00 in0.0 mm 0.00 in/hr0.0 mm/hr 0.00 in0.0 mm
05:19 PM 71.6°F22.0°C 32.8°F0.4°C 24% Calm Calm 4.4 mph7.1 kmh 30.16 in1021.3 mb 0.00 in0.0 mm 0.00 in/hr0.0 mm/hr 0.00 in0.0 mm
05:29 PM 70.4°F21.3°C 32.7°F0.4°C 25% Calm Calm -- 30.16 in1021.3 mb 0.00 in0.0 mm 0.00 in/hr0.0 mm/hr 0.00 in0.0 mm
05:40 PM 68.3°F20.2°C 35.5°F1.9°C 30% Calm Calm -- 30.16 in1021.3 mb 0.00 in0.0 mm 0.00 in/hr0.0 mm/hr 0.00 in0.0 mm
05:50 PM 66.4°F19.1°C 37.0°F2.8°C 34% Calm Calm -- 30.16 in1021.3 mb 0.00 in0.0 mm 0.00 in/hr0.0 mm/hr 0.00 in0.0 mm
06:01 PM 64.8°F18.2°C 37.0°F2.8°C 36% Calm Calm -- 30.16 in1021.3 mb 0.00 in0.0 mm 0.00 in/hr0.0 mm/hr 0.00 in0.0 mm
06:12 PM 64.1°F17.8°C 36.4°F2.4°C 36% Calm Calm -- 30.16 in1021.3 mb 0.00 in0.0 mm 0.00 in/hr0.0 mm/hr 0.00 in0.0 mm
06:22 PM 62.9°F17.2°C 36.8°F2.7°C 38% Calm Calm -- 30.17 in1021.7 mb 0.00 in0.0 mm 0.00 in/hr0.0 mm/hr 0.00 in0.0 mm
06:32 PM 62.0°F16.7°C 36.6°F2.6°C 39% Calm Calm -- 30.17 in1021.7 mb 0.00 in0.0 mm 0.00 in/hr0.0 mm/hr 0.00 in0.0 mm
06:43 PM 61.7°F16.5°C 36.3°F2.4°C 39% Calm Calm -- 30.17 in1021.7 mb 0.00 in0.0 mm 0.00 in/hr0.0 mm/hr 0.00 in0.0 mm
06:53 PM 61.4°F16.3°C 36.7°F2.6°C 40% Calm Calm -- 30.17 in1021.7 mb 0.00 in0.0 mm 0.00 in/hr0.0 mm/hr 0.00 in0.0 mm
07:04 PM 60.9°F16.1°C 36.3°F2.4°C 40% Calm Calm -- 30.17 in1021.7 mb 0.00 in0.0 mm 0.00 in/hr0.0 mm/hr 0.00 in0.0 mm
07:14 PM 60.7°F15.9°C 36.1°F2.3°C 40% Calm Calm -- 30.17 in1021.7 mb 0.00 in0.0 mm 0.00 in/hr0.0 mm/hr 0.00 in0.0 mm
07:25 PM 60.4°F15.8°C 35.8°F2.1°C 40% Calm Calm -- 30.17 in1021.7 mb 0.00 in0.0 mm 0.00 in/hr0.0 mm/hr 0.00 in0.0 mm
07:35 PM 60.0°F15.6°C 36.1°F2.3°C 41% Calm Calm -- 30.17 in1021.7 mb 0.00 in0.0 mm 0.00 in/hr0.0 mm/hr 0.00 in0.0 mm
07:46 PM 60.4°F15.8°C 36.4°F2.4°C 41% Calm Calm -- 30.18 in1022.0 mb 0.00 in0.0 mm 0.00 in/hr0.0 mm/hr 0.00 in0.0 mm
07:56 PM 60.4°F15.8°C 37.1°F2.8°C 42% Calm Calm -- 30.18 in1022.0 mb 0.00 in0.0 mm 0.00 in/hr0.0 mm/hr 0.00 in0.0 mm
08:07 PM 60.2°F15.7°C 36.9°F2.7°C 42% Calm Calm -- 30.18 in1022.0 mb 0.00 in0.0 mm 0.00 in/hr0.0 mm/hr 0.00 in0.0 mm
08:17 PM 59.8°F15.4°C 37.1°F2.8°C 43% Calm Calm -- 30.18 in1022.0 mb 0.00 in0.0 mm 0.00 in/hr0.0 mm/hr 0.00 in0.0 mm
08:28 PM 59.7°F15.4°C 37.0°F2.8°C 43% Calm Calm -- 30.18 in1022.0 mb 0.00 in0.0 mm 0.00 in/hr0.0 mm/hr 0.00 in0.0 mm
08:38 PM 59.5°F15.3°C 37.5°F3.1°C 44% Calm Calm -- 30.18 in1022.0 mb 0.00 in0.0 mm 0.00 in/hr0.0 mm/hr 0.00 in0.0 mm
08:49 PM 58.8°F14.9°C 37.4°F3.0°C 45% Calm Calm -- 30.18 in1022.0 mb 0.00 in0.0 mm 0.00 in/hr0.0 mm/hr 0.00 in0.0 mm
08:59 PM 58.2°F14.6°C 36.9°F2.7°C 45% Calm Calm -- 30.18 in1022.0 mb 0.00 in0.0 mm 0.00 in/hr0.0 mm/hr 0.00 in0.0 mm
09:10 PM 63.3°F17.4°C 37.1°F2.8°C 38% Calm Calm 2.2 mph3.5 kmh 30.18 in1022.0 mb 0.00 in0.0 mm 0.00 in/hr0.0 mm/hr 0.00 in0.0 mm
09:20 PM 64.7°F18.2°C 37.6°F3.1°C 37% 0.9 mph S1.4 kmh S 1.2 mph1.9 kmh 30.18 in1022.0 mb 0.00 in0.0 mm 0.00 in/hr0.0 mm/hr 0.00 in0.0 mm
09:30 PM 65.6°F18.7°C 37.7°F3.2°C 36% 0.6 mph S1.0 kmh S 2.6 mph4.2 kmh 30.19 in1022.4 mb 0.00 in0.0 mm 0.00 in/hr0.0 mm/hr 0.00 in0.0 mm
09:41 PM 66.1°F18.9°C 38.2°F3.4°C 36% 3.8 mph WSW6.1 kmh WSW 6.6 mph10.6 kmh 30.19 in1022.4 mb 0.00 in0.0 mm 0.00 in/hr0.0 mm/hr 0.00 in0.0 mm
09:51 PM 65.8°F18.8°C 37.9°F3.3°C 36% Calm Calm 6.6 mph10.6 kmh 30.19 in1022.4 mb 0.00 in0.0 mm 0.00 in/hr0.0 mm/hr 0.00 in0.0 mm
10:02 PM 65.1°F18.4°C 38.0°F3.3°C 37% 3.9 mph SSE6.3 kmh SSE 5.2 mph8.4 kmh 30.19 in1022.4 mb 0.00 in0.0 mm 0.00 in/hr0.0 mm/hr 0.00 in0.0 mm
10:12 PM 64.9°F18.3°C 37.8°F3.2°C 37% Calm Calm -- 30.19 in1022.4 mb 0.00 in0.0 mm 0.00 in/hr0.0 mm/hr 0.00 in0.0 mm
10:23 PM 64.3°F17.9°C 38.0°F3.3°C 38% 1.2 mph SSW1.9 kmh SSW 1.6 mph2.6 kmh 30.19 in1022.4 mb 0.00 in0.0 mm 0.00 in/hr0.0 mm/hr 0.00 in0.0 mm
10:33 PM 64.3°F17.9°C 38.0°F3.3°C 38% Calm Calm 1.6 mph2.6 kmh 30.19 in1022.4 mb 0.00 in0.0 mm 0.00 in/hr0.0 mm/hr 0.00 in0.0 mm
10:44 PM 64.5°F18.1°C 38.2°F3.4°C 38% 0.3 mph SSW0.5 kmh SSW 4.4 mph7.1 kmh 30.18 in1022.0 mb 0.00 in0.0 mm 0.00 in/hr0.0 mm/hr 0.00 in0.0 mm
10:54 PM 65.1°F18.4°C 38.0°F3.3°C 37% 4.9 mph SW7.9 kmh SW 6.6 mph10.6 kmh 30.18 in1022.0 mb 0.00 in0.0 mm 0.00 in/hr0.0 mm/hr 0.00 in0.0 mm
11:05 PM 64.3°F17.9°C 38.0°F3.3°C 38% Calm Calm 2.6 mph4.2 kmh 30.18 in1022.0 mb 0.00 in0.0 mm 0.00 in/hr0.0 mm/hr 0.00 in0.0 mm
11:15 PM 64.3°F17.9°C 38.0°F3.3°C 38% Calm Calm -- 30.19 in1022.4 mb 0.00 in0.0 mm 0.00 in/hr0.0 mm/hr 0.00 in0.0 mm
11:26 PM 64.0°F17.8°C 37.7°F3.2°C 38% Calm Calm -- 30.19 in1022.4 mb 0.00 in0.0 mm 0.00 in/hr0.0 mm/hr 0.00 in0.0 mm
11:36 PM 64.3°F17.9°C 38.0°F3.3°C 38% 1.9 mph SSW3.1 kmh SSW 3.0 mph4.8 kmh 30.19 in1022.4 mb 0.00 in0.0 mm 0.00 in/hr0.0 mm/hr 0.00 in0.0 mm
11:47 PM 64.3°F17.9°C 38.0°F3.3°C 38% 0.9 mph SSW1.4 kmh SSW 16.4 mph26.4 kmh 30.18 in1022.0 mb 0.00 in0.0 mm 0.00 in/hr0.0 mm/hr 0.00 in0.0 mm
11:57 PM 64.3°F17.9°C 38.0°F3.3°C 38% 1.7 mph SSW2.7 kmh SSW 2.2 mph3.5 kmh 30.17 in1021.7 mb 0.00 in0.0 mm 0.00 in/hr0.0 mm/hr 0.00 in0.0 mm